Time;durP1;ratioP1;P1;durP2;ratioP2;P2;SDS_P1;SDS_P2;PMS_P1;PMS_P2;Temp;Humidity;BMP_temperature;BMP_pressure;BME280_temperature;BME280_humidity;BME280_pressure;Samples;Min_cycle;Max_cycle;Signal;HPM_P1;HPM_P2
2023/01/23 00:02:08;;;;;;;32.25;26.50;;;2.50;99.90;;;;;;6214052;23;20662;-80
2023/01/23 00:04:35;;;;;;;32.47;26.88;;;2.50;99.90;;;;;;6212967;23;20346;-78
2023/01/23 00:07:02;;;;;;;32.50;26.40;;;2.50;99.90;;;;;;6212924;23;20338;-78
2023/01/23 00:09:28;;;;;;;33.80;27.27;;;2.50;99.90;;;;;;6213043;23;20349;-80
2023/01/23 00:11:53;;;;;;;34.95;27.45;;;2.50;99.90;;;;;;6212897;23;20338;-80
2023/01/23 00:14:19;;;;;;;32.17;26.60;;;2.40;99.90;;;;;;6214739;23;20354;-79
2023/01/23 00:16:48;;;;;;;33.53;27.30;;;2.40;99.90;;;;;;6211989;23;20686;-79
2023/01/23 00:19:17;;;;;;;33.15;27.33;;;2.40;99.90;;;;;;6201894;23;20649;-79
2023/01/23 00:21:45;;;;;;;32.42;26.90;;;2.40;99.90;;;;;;6205697;23;20420;-79
2023/01/23 00:24:40;;;;;;;34.45;27.75;;;2.50;99.90;;;;;;6213535;23;20389;-79
2023/01/23 00:27:28;;;;;;;32.55;27.02;;;2.40;99.90;;;;;;6228437;23;20346;-79
2023/01/23 00:29:54;;;;;;;32.67;25.65;;;2.50;99.90;;;;;;6232667;23;20361;-79
2023/01/23 00:32:22;;;;;;;34.97;28.23;;;2.60;99.90;;;;;;6218305;23;20354;-78
2023/01/23 00:34:48;;;;;;;37.35;28.17;;;2.40;99.90;;;;;;6214009;23;20377;-80
2023/01/23 00:37:15;;;;;;;35.63;28.02;;;2.40;99.90;;;;;;6214057;23;20376;-78
2023/01/23 00:39:41;;;;;;;35.55;28.00;;;2.40;99.90;;;;;;6214365;23;20358;-79
2023/01/23 00:42:07;;;;;;;37.47;29.13;;;2.40;99.90;;;;;;6214079;23;20773;-80
2023/01/23 00:44:35;;;;;;;36.57;28.90;;;2.40;99.90;;;;;;6214275;23;20338;-79
2023/01/23 00:47:01;;;;;;;36.25;28.17;;;2.40;99.90;;;;;;6213827;23;20334;-79
2023/01/23 00:49:28;;;;;;;37.10;28.80;;;2.40;99.90;;;;;;6214560;23;20345;-79
2023/01/23 00:51:55;;;;;;;37.45;29.30;;;2.40;99.90;;;;;;6212828;23;20376;-77
2023/01/23 00:54:21;;;;;;;37.05;28.52;;;2.30;99.90;;;;;;6213854;23;20352;-79
2023/01/23 00:56:47;;;;;;;37.13;29.33;;;2.30;99.90;;;;;;6213872;23;20647;-79
2023/01/23 00:59:15;;;;;;;37.15;29.27;;;2.30;99.90;;;;;;6213721;23;20829;-79
2023/01/23 01:01:41;;;;;;;37.85;29.70;;;2.30;99.90;;;;;;6214019;23;20353;-79
2023/01/23 01:04:07;;;;;;;41.42;30.60;;;2.20;99.90;;;;;;6212006;23;20346;-79
2023/01/23 01:06:33;;;;;;;38.72;29.83;;;2.40;99.90;;;;;;6205646;23;20923;-79
2023/01/23 01:08:59;;;;;;;39.03;29.55;;;2.30;99.90;;;;;;6209132;23;20342;-80
2023/01/23 01:11:27;;;;;;;40.58;30.92;;;2.30;99.90;;;;;;6200176;23;20338;-79
2023/01/23 01:13:53;;;;;;;39.92;30.95;;;2.30;99.90;;;;;;6211927;23;20346;-78
2023/01/23 01:16:18;;;;;;;37.60;28.43;;;2.30;99.90;;;;;;6208829;23;20700;-79
2023/01/23 01:18:44;;;;;;;38.20;29.43;;;2.30;99.90;;;;;;6213453;23;20442;-79
2023/01/23 01:21:13;;;;;;;38.93;30.27;;;2.40;99.90;;;;;;6186541;23;20350;-79
2023/01/23 01:23:39;;;;;;;39.13;30.30;;;2.30;99.90;;;;;;6187374;23;20357;-80
2023/01/23 01:26:08;;;;;;;38.50;29.52;;;2.30;99.90;;;;;;6213956;23;20447;-80
2023/01/23 01:28:35;;;;;;;39.30;29.90;;;2.50;99.90;;;;;;6212811;23;20425;-78
2023/01/23 01:31:13;;;;;;;39.50;29.83;;;2.40;99.90;;;;;;6213715;23;20372;-79
2023/01/23 01:33:45;;;;;;;37.30;29.13;;;2.30;99.90;;;;;;6213358;23;20348;-79
2023/01/23 01:36:15;;;;;;;40.50;31.07;;;2.40;99.90;;;;;;6213169;23;20346;-79
2023/01/23 01:38:44;;;;;;;40.85;31.42;;;2.40;99.90;;;;;;6213186;23;20365;-78
2023/01/23 01:41:14;;;;;;;42.25;31.15;;;2.20;99.90;;;;;;6211446;23;20334;-78
2023/01/23 01:43:40;;;;;;;41.15;30.45;;;2.40;99.90;;;;;;6210648;23;20349;-79
2023/01/23 01:46:18;;;;;;;37.80;29.38;;;2.40;99.90;;;;;;6212546;23;20912;-79
2023/01/23 01:48:55;;;;;;;39.65;29.55;;;2.50;99.90;;;;;;6213014;23;20342;-79
2023/01/23 01:51:55;;;;;;;40.05;29.98;;;2.40;99.90;;;;;;6211998;23;20452;-77
2023/01/23 01:54:40;;;;;;;36.63;28.88;;;2.50;99.90;;;;;;6213545;23;20390;-80
2023/01/23 01:57:17;;;;;;;39.78;29.52;;;2.40;99.90;;;;;;6211411;23;20418;-78
2023/01/23 01:59:45;;;;;;;38.33;30.80;;;2.40;99.90;;;;;;6213453;23;20390;-78
2023/01/23 02:02:16;;;;;;;41.95;31.05;;;2.40;99.90;;;;;;6211781;23;20438;-78
2023/01/23 02:04:46;;;;;;;37.72;30.30;;;2.40;99.90;;;;;;6213775;23;20338;-78
2023/01/23 02:07:45;;;;;;;41.00;30.25;;;2.50;99.90;;;;;;6210988;23;20338;-80
2023/01/23 02:10:11;;;;;;;40.70;31.55;;;2.40;99.90;;;;;;6197947;23;20346;-80
2023/01/23 02:12:37;;;;;;;36.47;28.90;;;2.40;99.90;;;;;;6212543;23;20635;-79
2023/01/23 02:15:06;;;;;;;40.67;31.03;;;2.40;99.90;;;;;;6213675;23;20337;-80
2023/01/23 02:17:35;;;;;;;38.80;30.23;;;2.40;99.90;;;;;;6212479;23;20334;-80
2023/01/23 02:20:18;;;;;;;38.60;29.90;;;2.40;99.90;;;;;;6212931;23;20437;-80
2023/01/23 02:23:15;;;;;;;39.13;30.23;;;2.40;99.90;;;;;;6211181;23;20369;-80
2023/01/23 02:25:44;;;;;;;39.50;29.90;;;2.30;99.90;;;;;;6213553;23;20451;-80
2023/01/23 02:28:14;;;;;;;39.50;29.30;;;2.40;99.90;;;;;;6211185;23;20369;-80
2023/01/23 02:30:45;;;;;;;36.87;29.40;;;2.50;99.90;;;;;;6206606;22;20797;-80
2023/01/23 02:33:20;;;;;;;38.88;30.35;;;2.50;99.90;;;;;;6210643;23;20693;-80
2023/01/23 02:35:49;;;;;;;39.28;30.48;;;2.30;99.90;;;;;;6212101;23;20416;-79
2023/01/23 02:38:18;;;;;;;40.72;29.85;;;2.30;99.90;;;;;;6211786;23;20388;-79
2023/01/23 02:40:44;;;;;;;37.83;29.27;;;2.50;99.90;;;;;;6211973;23;20443;-79
2023/01/23 02:43:20;;;;;;;38.53;30.43;;;2.40;99.90;;;;;;6211413;23;20803;-79
2023/01/23 02:45:48;;;;;;;40.33;29.58;;;2.30;99.90;;;;;;6212278;23;20669;-79
2023/01/23 02:48:15;;;;;;;40.53;30.45;;;2.40;99.90;;;;;;6212866;23;20780;-79
2023/01/23 02:50:42;;;;;;;35.70;28.60;;;2.40;99.90;;;;;;6213231;23;20334;-81
2023/01/23 02:53:08;;;;;;;39.58;29.92;;;2.40;99.90;;;;;;6215081;23;20400;-80
2023/01/23 02:55:36;;;;;;;37.13;29.23;;;2.40;99.90;;;;;;6216136;23;20341;-79
2023/01/23 03:00:47;;;;;;;38.95;30.02;;;2.40;99.90;;;;;;6231840;23;20350;-78
2023/01/23 03:03:13;;;;;;;39.15;29.05;;;2.20;99.90;;;;;;6190457;23;20362;-79
2023/01/23 03:05:40;;;;;;;39.73;29.67;;;2.40;99.90;;;;;;6211815;23;20352;-80
2023/01/23 03:08:06;;;;;;;39.90;29.98;;;2.50;99.90;;;;;;6211132;23;20441;-79
2023/01/23 03:10:32;;;;;;;35.67;28.00;;;2.50;99.90;;;;;;6184044;23;20346;-79
2023/01/23 03:13:03;;;;;;;38.00;29.27;;;2.50;99.90;;;;;;6211420;23;20353;-78
2023/01/23 03:15:30;;;;;;;41.35;30.83;;;2.50;99.90;;;;;;6185036;23;20358;-79
2023/01/23 03:17:56;;;;;;;39.03;29.50;;;2.40;99.90;;;;;;6183523;23;20400;-79
2023/01/23 03:20:28;;;;;;;40.30;30.88;;;2.50;99.90;;;;;;6211210;23;20804;-78
2023/01/23 03:22:54;;;;;;;36.55;29.50;;;2.40;99.90;;;;;;6211230;23;20788;-78
2023/01/23 03:25:22;;;;;;;39.28;30.80;;;2.50;99.90;;;;;;6184712;23;20368;-79
2023/01/23 03:27:48;;;;;;;39.50;30.23;;;2.30;99.90;;;;;;6184755;23;20847;-78
2023/01/23 03:30:15;;;;;;;39.00;30.67;;;2.30;99.90;;;;;;6209278;23;20804;-78
2023/01/23 03:32:46;;;;;;;39.35;31.17;;;2.40;99.90;;;;;;6211472;23;20820;-79
2023/01/23 03:35:15;;;;;;;39.58;30.90;;;2.40;99.90;;;;;;6212358;23;20395;-79
2023/01/23 03:37:41;;;;;;;39.60;31.00;;;2.40;99.90;;;;;;6185443;23;20726;-80
2023/01/23 03:43:14;;;;;;;40.08;30.90;;;2.50;99.90;;;;;;6213427;23;20403;-79
2023/01/23 03:45:40;;;;;;;41.83;32.13;;;2.40;99.90;;;;;;6212779;23;20863;-79
2023/01/23 03:48:06;;;;;;;39.97;31.17;;;2.40;99.90;;;;;;6212158;23;20334;-80
2023/01/23 03:50:31;;;;;;;40.63;30.20;;;2.50;99.90;;;;;;6213407;23;20333;-78
2023/01/23 03:52:57;;;;;;;40.22;30.88;;;2.50;99.90;;;;;;6213133;23;20436;-78
2023/01/23 03:55:26;;;;;;;42.65;31.92;;;2.40;99.90;;;;;;6213514;23;20341;-80
2023/01/23 03:57:52;;;;;;;40.17;31.25;;;2.40;99.90;;;;;;6211991;23;20628;-80
2023/01/23 04:00:19;;;;;;;39.33;30.55;;;2.50;99.90;;;;;;6213108;23;20352;-78
2023/01/23 04:02:45;;;;;;;40.97;31.15;;;2.40;99.90;;;;;;6213086;23;20338;-78
2023/01/23 04:05:11;;;;;;;40.23;31.03;;;2.40;99.90;;;;;;6212600;23;20725;-79
2023/01/23 04:07:39;;;;;;;41.83;31.27;;;2.40;99.90;;;;;;6211333;23;20802;-78
2023/01/23 04:10:05;;;;;;;37.67;30.48;;;2.40;99.90;;;;;;6208837;23;20354;-78
2023/01/23 04:12:31;;;;;;;41.95;32.50;;;2.40;99.90;;;;;;6212651;23;20342;-79
2023/01/23 04:14:57;;;;;;;38.05;30.17;;;2.40;99.90;;;;;;6185837;23;20416;-81
2023/01/23 04:17:22;;;;;;;40.03;30.30;;;2.30;99.90;;;;;;6211995;23;20349;-79
2023/01/23 04:19:48;;;;;;;39.53;30.60;;;2.50;99.90;;;;;;6212829;23;20436;-81
2023/01/23 04:22:14;;;;;;;39.10;30.50;;;2.50;99.90;;;;;;6185937;23;20350;-79
2023/01/23 04:24:40;;;;;;;40.07;30.30;;;2.50;99.90;;;;;;6212990;23;20345;-78
2023/01/23 04:27:05;;;;;;;40.10;30.07;;;2.60;99.90;;;;;;6212614;23;20347;-78
2023/01/23 04:29:32;;;;;;;40.80;31.17;;;2.50;99.90;;;;;;6212882;23;20669;-79
2023/01/23 04:31:57;;;;;;;37.50;28.95;;;2.50;99.90;;;;;;6211537;23;20370;-79
2023/01/23 04:34:23;;;;;;;38.65;29.80;;;2.60;99.90;;;;;;6212820;23;20420;-79
2023/01/23 04:36:49;;;;;;;38.70;30.47;;;2.60;99.90;;;;;;6210807;23;20346;-79
2023/01/23 04:39:15;;;;;;;38.92;29.88;;;2.50;99.90;;;;;;6210114;23;20390;-79
2023/01/23 04:41:41;;;;;;;41.60;30.98;;;2.60;99.90;;;;;;6184075;23;20805;-80
2023/01/23 04:44:18;;;;;;;40.70;31.50;;;2.60;99.90;;;;;;6211068;23;20358;-78
2023/01/23 04:46:49;;;;;;;40.27;30.30;;;2.50;99.90;;;;;;6210440;23;20413;-80
2023/01/23 04:49:21;;;;;;;41.38;31.90;;;2.60;99.90;;;;;;6213107;23;20342;-80
2023/01/23 04:51:47;;;;;;;41.83;31.73;;;2.50;99.90;;;;;;6212926;23;20361;-80
2023/01/23 04:54:15;;;;;;;44.67;32.30;;;2.50;99.90;;;;;;6213028;23;20883;-78
2023/01/23 04:56:47;;;;;;;40.22;30.67;;;2.50;99.90;;;;;;6184377;23;20412;-80
2023/01/23 04:59:15;;;;;;;41.17;31.30;;;2.50;99.90;;;;;;6212065;23;20390;-78
2023/01/23 05:01:42;;;;;;;42.25;31.05;;;2.50;99.90;;;;;;6186219;23;20678;-79
2023/01/23 05:04:07;;;;;;;40.90;32.20;;;2.50;99.90;;;;;;6212205;23;20350;-79
2023/01/23 05:06:35;;;;;;;42.00;32.15;;;2.50;99.90;;;;;;6212980;23;20379;-78
2023/01/23 05:09:01;;;;;;;41.30;31.45;;;2.40;99.90;;;;;;6212181;23;20346;-79
2023/01/23 05:11:30;;;;;;;40.38;31.27;;;2.50;99.90;;;;;;6186802;23;20346;-78
2023/01/23 05:13:59;;;;;;;41.53;31.63;;;2.50;99.90;;;;;;6212424;23;20954;-78
2023/01/23 05:16:26;;;;;;;45.15;33.70;;;2.50;99.90;;;;;;6212920;23;20425;-78
2023/01/23 05:18:51;;;;;;;44.35;32.95;;;2.40;99.90;;;;;;6185700;23;20381;-79
2023/01/23 05:21:17;;;;;;;43.30;32.65;;;2.50;99.90;;;;;;6185968;23;20355;-79
2023/01/23 05:23:43;;;;;;;41.78;31.30;;;2.50;99.90;;;;;;6212706;23;20346;-79
2023/01/23 05:26:11;;;;;;;43.63;33.50;;;2.50;99.90;;;;;;6211556;23;20792;-80
2023/01/23 05:28:55;;;;;;;;;;;;;;;;;;;;;
2023/01/23 05:31:24;;;;;;;42.38;32.50;;;2.40;99.90;;;;;;6213330;23;20457;-80
2023/01/23 05:33:54;;;;;;;42.67;32.58;;;2.40;99.90;;;;;;6214640;23;20839;-79
2023/01/23 05:36:25;;;;;;;39.20;30.80;;;2.40;99.90;;;;;;6213830;23;20338;-79
2023/01/23 05:39:23;;;;;;;42.30;33.00;;;2.50;99.90;;;;;;6213816;23;20573;-80
2023/01/23 05:48:50;;;;;;;45.27;33.57;;;2.40;99.90;;;;;;6117208;23;20418;-78
2023/01/23 05:51:40;;;;;;;;;;;;;;;;;;;;;
2023/01/23 06:22:04;;;;;;;;;;;;;;;;;;;;;
2023/01/23 06:24:53;;;;;;;44.95;33.55;;;2.40;99.90;;;;;;5976184;24;20958;-78
2023/01/23 06:27:19;;;;;;;43.67;33.58;;;2.40;99.90;;;;;;6063599;23;20436;-79
2023/01/23 06:29:52;;;;;;;42.05;32.20;;;2.40;99.90;;;;;;6090150;23;20376;-81
2023/01/23 06:32:18;;;;;;;44.00;33.47;;;2.50;99.90;;;;;;6155086;23;20375;-78
2023/01/23 06:34:56;;;;;;;43.80;33.67;;;2.40;99.90;;;;;;6181336;23;20837;-78
2023/01/23 06:37:21;;;;;;;45.85;32.97;;;2.30;99.90;;;;;;6181002;23;20347;-78
2023/01/23 06:39:50;;;;;;;41.17;31.37;;;2.30;99.90;;;;;;6181634;23;20691;-78
2023/01/23 06:42:43;;;;;;;44.95;33.33;;;2.40;99.90;;;;;;6183270;23;20352;-78
2023/01/23 06:45:15;;;;;;;43.97;33.03;;;2.40;99.90;;;;;;6182183;23;20845;-77
2023/01/23 06:47:44;;;;;;;43.00;33.45;;;2.40;99.90;;;;;;6153923;23;20452;-79
2023/01/23 06:50:41;;;;;;;43.28;33.10;;;2.40;99.90;;;;;;6182074;23;20362;-78
2023/01/23 06:53:42;;;;;;;;;;;;;;;;;;;;;
2023/01/23 06:56:13;;;;;;;42.63;32.50;;;2.60;99.90;;;;;;6170945;23;20379;-78
2023/01/23 06:58:45;;;;;;;46.38;33.72;;;2.50;99.90;;;;;;6154414;23;20874;-79
2023/01/23 07:01:20;;;;;;;42.80;32.22;;;2.40;99.90;;;;;;6181238;23;20342;-79
2023/01/23 07:03:46;;;;;;;41.75;32.17;;;2.50;99.90;;;;;;6153441;23;20439;-79
2023/01/23 07:06:21;;;;;;;42.45;32.40;;;2.50;99.90;;;;;;6154224;23;20379;-78
2023/01/23 07:08:57;;;;;;;44.65;33.65;;;2.40;99.90;;;;;;6180748;23;20371;-79
2023/01/23 07:11:23;;;;;;;44.05;32.92;;;2.50;99.90;;;;;;6181580;23;20350;-78
2023/01/23 07:14:07;;;;;;;41.42;31.92;;;2.50;99.90;;;;;;6180614;23;20822;-79
2023/01/23 07:17:01;;;;;;;40.53;31.52;;;2.40;99.90;;;;;;6154354;23;20414;-78
2023/01/23 07:19:33;;;;;;;43.10;32.53;;;2.50;99.90;;;;;;6101982;23;20372;-78
2023/01/23 07:22:00;;;;;;;42.97;32.75;;;2.40;99.90;;;;;;6153502;23;20363;-78
2023/01/23 07:24:44;;;;;;;;;;;;;;;;;;;;;
2023/01/23 07:27:13;;;;;;;44.97;33.10;;;2.30;99.90;;;;;;6182353;23;20562;-79
2023/01/23 07:29:44;;;;;;;44.22;33.30;;;2.30;99.90;;;;;;6181831;23;20354;-80
2023/01/23 07:35:04;;;;;;;41.00;32.55;;;2.40;99.90;;;;;;6180659;23;20418;-78
2023/01/23 07:37:37;;;;;;;41.17;32.73;;;2.50;99.90;;;;;;6152217;23;21812;-79
2023/01/23 07:40:25;;;;;;;39.97;31.50;;;2.30;99.90;;;;;;6180361;23;20378;-79
2023/01/23 07:42:52;;;;;;;41.08;32.00;;;2.30;99.90;;;;;;6151048;23;20361;-78
2023/01/23 07:45:25;;;;;;;37.97;30.30;;;2.40;99.90;;;;;;6155112;23;20375;-78
2023/01/23 07:48:09;;;;;;;;;;;;;;;;;;;;;
2023/01/23 07:50:42;;;;;;;39.03;30.95;;;2.40;99.90;;;;;;6181135;23;20446;-79
2023/01/23 07:53:22;;;;;;;38.78;31.55;;;2.40;99.90;;;;;;6153383;23;20363;-80
2023/01/23 07:56:13;;;;;;;39.00;31.20;;;2.50;99.90;;;;;;6152716;23;20355;-80
2023/01/23 07:58:42;;;;;;;38.58;31.33;;;2.50;99.90;;;;;;6167183;23;20912;-78
2023/01/23 08:01:10;;;;;;;39.35;31.05;;;2.60;99.90;;;;;;6152760;23;20996;-79
2023/01/23 08:03:38;;;;;;;39.38;31.30;;;2.60;99.90;;;;;;6180952;23;20348;-79
2023/01/23 08:06:07;;;;;;;38.03;30.77;;;2.60;99.90;;;;;;6182054;23;20334;-79
2023/01/23 08:08:33;;;;;;;39.85;30.65;;;2.60;99.90;;;;;;6177705;23;20379;-78
2023/01/23 08:11:10;;;;;;;38.22;30.35;;;2.50;99.90;;;;;;6179938;23;20344;-81
2023/01/23 08:14:09;;;;;;;;;;;;;;;;;;;;;
2023/01/23 08:16:52;;;;;;;41.95;30.73;;;2.50;99.90;;;;;;6133426;23;20438;-80
2023/01/23 08:19:52;;;;;;;;;;;;;;;;;;;;;
2023/01/23 08:22:20;;;;;;;36.72;29.40;;;2.60;99.90;;;;;;6144589;23;20418;-80
2023/01/23 08:25:10;;;;;;;;;;;;;;;;;;;;;
2023/01/23 08:27:36;;;;;;;38.00;29.77;;;2.80;99.90;;;;;;6190433;23;20368;-80
2023/01/23 08:30:07;;;;;;;37.33;29.50;;;2.60;99.90;;;;;;6188316;23;20351;-80
2023/01/23 08:32:41;;;;;;;36.17;28.70;;;2.70;99.90;;;;;;6177897;23;21093;-80
2023/01/23 08:35:18;;;;;;;32.97;27.67;;;2.60;99.90;;;;;;6180775;23;20449;-77
2023/01/23 08:37:44;;;;;;;35.55;28.77;;;2.70;99.90;;;;;;6152893;23;20675;-79
2023/01/23 08:40:12;;;;;;;37.17;29.58;;;2.60;99.90;;;;;;6180058;23;20375;-78
2023/01/23 08:42:37;;;;;;;37.40;29.42;;;2.80;99.90;;;;;;6176294;23;20348;-80
2023/01/23 08:45:04;;;;;;;35.97;28.20;;;2.70;99.90;;;;;;6179880;23;20724;-78
2023/01/23 08:47:35;;;;;;;36.13;28.38;;;2.70;99.90;;;;;;6178726;23;20361;-80
2023/01/23 08:50:01;;;;;;;35.70;28.45;;;2.70;99.90;;;;;;6177077;23;20636;-79
2023/01/23 08:52:27;;;;;;;37.35;29.00;;;2.70;99.90;;;;;;6181955;23;20769;-79
2023/01/23 08:54:56;;;;;;;36.33;29.63;;;2.70;99.90;;;;;;6179962;23;20359;-80
2023/01/23 08:57:24;;;;;;;35.20;28.25;;;2.80;99.90;;;;;;6179621;23;20364;-78
2023/01/23 08:59:50;;;;;;;36.22;29.85;;;2.80;99.90;;;;;;6182095;23;20834;-79
2023/01/23 09:02:16;;;;;;;37.50;29.60;;;2.90;99.90;;;;;;6179469;23;20354;-80
2023/01/23 09:04:41;;;;;;;36.87;29.97;;;2.70;99.90;;;;;;6181840;23;20874;-79
2023/01/23 09:07:07;;;;;;;39.10;30.10;;;2.70;99.90;;;;;;6154763;23;20907;-80
2023/01/23 09:09:33;;;;;;;38.55;30.48;;;2.70;99.90;;;;;;6182612;23;20776;-79
2023/01/23 09:12:01;;;;;;;40.88;30.80;;;2.70;99.90;;;;;;6178927;23;20344;-77
2023/01/23 09:14:27;;;;;;;37.50;29.92;;;2.70;99.90;;;;;;6182685;23;20561;-78
2023/01/23 09:16:53;;;;;;;36.27;28.50;;;2.70;99.90;;;;;;6154531;23;20768;-78
2023/01/23 09:19:19;;;;;;;37.10;28.87;;;2.90;99.90;;;;;;6179535;23;20739;-79
2023/01/23 09:21:44;;;;;;;35.53;28.67;;;2.80;99.90;;;;;;6179398;23;20399;-78
2023/01/23 09:24:10;;;;;;;33.07;27.67;;;2.80;99.90;;;;;;6181255;23;20398;-78
2023/01/23 09:26:36;;;;;;;31.83;26.77;;;2.80;99.90;;;;;;6182134;23;20344;-80
2023/01/23 09:29:03;;;;;;;31.92;26.50;;;2.90;99.90;;;;;;6153607;23;20398;-78
2023/01/23 09:31:29;;;;;;;31.73;26.50;;;2.90;99.90;;;;;;6178864;23;20409;-80
2023/01/23 09:33:55;;;;;;;33.88;26.65;;;2.80;99.90;;;;;;6180571;23;20438;-80
2023/01/23 09:36:24;;;;;;;32.72;26.15;;;2.80;99.90;;;;;;6155575;23;20352;-79
2023/01/23 09:38:49;;;;;;;35.10;27.20;;;2.90;99.90;;;;;;6178314;23;20407;-78
2023/01/23 09:41:24;;;;;;;33.90;28.43;;;2.90;99.90;;;;;;6180908;23;20418;-80
2023/01/23 09:44:17;;;;;;;37.05;28.38;;;2.90;99.90;;;;;;6179802;23;20434;-79
2023/01/23 09:47:03;;;;;;;33.30;27.37;;;2.80;99.90;;;;;;6182593;23;20396;-80
2023/01/23 09:49:44;;;;;;;33.28;27.48;;;3.00;99.90;;;;;;6179898;23;20366;-78
2023/01/23 09:52:26;;;;;;;34.70;27.58;;;3.10;99.90;;;;;;6152370;23;20659;-79
2023/01/23 09:55:13;;;;;;;34.30;26.98;;;3.20;99.90;;;;;;6177562;23;20449;-77
2023/01/23 09:58:02;;;;;;;32.65;26.83;;;3.30;99.90;;;;;;6153863;23;20838;-78
2023/01/23 10:00:35;;;;;;;35.22;27.98;;;3.30;99.90;;;;;;6181193;23;20438;-77
2023/01/23 10:03:17;;;;;;;37.47;29.08;;;3.10;99.90;;;;;;6179650;23;20348;-79
2023/01/23 10:06:06;;;;;;;33.05;27.27;;;3.10;99.90;;;;;;6179786;23;20888;-80
2023/01/23 10:08:57;;;;;;;36.47;28.95;;;3.10;99.90;;;;;;6180749;23;20850;-78
2023/01/23 10:11:40;;;;;;;35.47;28.55;;;3.10;99.90;;;;;;6180604;23;20943;-79
2023/01/23 10:14:45;;;;;;;33.65;28.63;;;3.00;99.90;;;;;;6180392;23;20343;-79
2023/01/23 10:17:51;;;;;;;32.95;27.55;;;3.30;99.90;;;;;;6180375;23;20358;-78
2023/01/23 10:20:38;;;;;;;34.70;28.92;;;3.30;99.90;;;;;;6180766;23;20846;-79
2023/01/23 10:23:10;;;;;;;32.97;27.75;;;3.30;99.90;;;;;;6179777;23;20425;-79
2023/01/23 10:25:44;;;;;;;33.40;27.63;;;3.30;99.90;;;;;;6154674;23;20371;-78
2023/01/23 10:28:37;;;;;;;35.47;29.05;;;3.30;99.90;;;;;;6152304;23;20558;-78
2023/01/23 10:32:04;;;;;;;34.60;29.13;;;3.30;99.90;;;;;;6152320;23;20456;-78
2023/01/23 10:34:55;;;;;;;35.28;28.38;;;3.30;99.90;;;;;;6088625;23;20828;-79
2023/01/23 10:38:10;;;;;;;33.60;28.50;;;3.40;99.90;;;;;;6088699;23;20367;-78
2023/01/23 10:43:29;;;;;;;36.40;29.70;;;3.50;99.90;;;;;;6161839;23;20347;-78
2023/01/23 10:46:01;;;;;;;35.70;30.40;;;3.50;99.90;;;;;;6178382;23;20351;-78
2023/01/23 10:48:48;;;;;;;36.85;29.48;;;3.50;99.90;;;;;;6129690;23;20355;-77
2023/01/23 10:51:46;;;;;;;36.40;29.40;;;3.40;99.90;;;;;;6179425;23;20351;-77
2023/01/23 10:54:23;;;;;;;34.50;28.20;;;3.40;99.90;;;;;;6180287;23;20374;-78
2023/01/23 10:57:01;;;;;;;36.63;29.85;;;3.30;99.90;;;;;;6178797;23;20462;-78
2023/01/23 10:59:37;;;;;;;34.50;28.20;;;3.30;99.90;;;;;;6180837;23;20367;-77
2023/01/23 11:02:36;;;;;;;35.70;28.25;;;3.30;99.90;;;;;;6152421;23;20387;-77
2023/01/23 11:05:42;;;;;;;32.80;27.60;;;3.30;99.90;;;;;;6157836;23;20383;-77
2023/01/23 11:08:35;;;;;;;32.72;26.65;;;3.40;99.90;;;;;;6180917;23;20352;-79
2023/01/23 11:11:35;;;;;;;31.20;26.63;;;3.40;99.90;;;;;;6185674;23;20374;-78
2023/01/23 11:14:20;;;;;;;36.20;28.60;;;3.40;99.90;;;;;;6131968;23;20362;-78
2023/01/23 11:17:12;;;;;;;35.60;29.40;;;3.40;99.90;;;;;;6152972;23;20827;-79
2023/01/23 11:19:44;;;;;;;36.55;29.80;;;3.30;99.90;;;;;;6178348;23;20383;-79
2023/01/23 11:22:42;;;;;;;33.92;27.65;;;3.40;99.90;;;;;;6153036;23;20356;-78
2023/01/23 11:25:40;;;;;;;34.78;28.27;;;3.40;99.90;;;;;;6179485;23;20352;-79
2023/01/23 11:28:23;;;;;;;33.43;27.97;;;3.50;99.90;;;;;;6180946;23;20347;-79
2023/01/23 11:31:20;;;;;;;34.38;29.05;;;3.50;99.90;;;;;;6181649;23;20347;-79
2023/01/23 11:34:23;;;;;;;31.92;27.15;;;3.60;99.90;;;;;;6154031;23;20366;-79
2023/01/23 11:37:17;;;;;;;34.45;28.00;;;3.60;99.90;;;;;;6178393;23;20490;-80
2023/01/23 11:40:15;;;;;;;32.80;26.92;;;3.60;99.90;;;;;;6179578;23;20390;-79
2023/01/23 11:42:44;;;;;;;33.72;27.90;;;3.60;99.90;;;;;;6160670;23;20446;-78
2023/01/23 11:45:33;;;;;;;34.87;27.80;;;3.50;99.90;;;;;;6179339;23;20621;-78
2023/01/23 11:48:51;;;;;;;34.20;28.90;;;3.40;99.90;;;;;;6152531;23;20449;-78
2023/01/23 11:51:43;;;;;;;34.63;27.95;;;3.40;99.90;;;;;;6085388;23;20840;-79
2023/01/23 11:54:40;;;;;;;33.97;28.33;;;3.50;99.90;;;;;;6066361;23;20914;-78
2023/01/23 11:57:37;;;;;;;32.88;27.38;;;3.40;99.90;;;;;;6169187;23;20442;-78
2023/01/23 12:00:41;;;;;;;31.88;27.45;;;3.40;99.90;;;;;;6181904;23;20410;-78
2023/01/23 12:03:23;;;;;;;32.97;27.57;;;3.50;99.90;;;;;;6154127;23;20402;-79
2023/01/23 12:06:16;;;;;;;33.58;28.63;;;3.40;99.90;;;;;;6181693;23;20342;-80
2023/01/23 12:08:47;;;;;;;34.53;29.00;;;3.50;99.90;;;;;;6180685;23;20347;-78
2023/01/23 12:11:15;;;;;;;32.72;28.33;;;3.50;99.90;;;;;;6182812;23;20461;-78
2023/01/23 12:13:47;;;;;;;33.50;28.60;;;3.40;99.90;;;;;;6153355;23;20776;-78
2023/01/23 12:16:36;;;;;;;33.47;27.45;;;3.40;99.90;;;;;;6153423;23;20359;-78
2023/01/23 12:19:24;;;;;;;34.10;28.52;;;3.50;99.90;;;;;;6178934;23;20773;-77
2023/01/23 12:22:02;;;;;;;33.83;28.60;;;3.50;99.90;;;;;;6180021;23;20471;-78
2023/01/23 12:24:52;;;;;;;31.83;28.05;;;3.50;99.90;;;;;;6181724;23;20530;-77
2023/01/23 12:27:17;;;;;;;32.83;28.25;;;3.40;99.90;;;;;;6155155;23;20738;-78
2023/01/23 12:29:58;;;;;;;31.23;27.17;;;3.40;99.90;;;;;;6183111;23;20375;-76
2023/01/23 12:33:01;;;;;;;31.97;27.53;;;3.30;99.90;;;;;;6155548;23;20741;-78
2023/01/23 12:35:34;;;;;;;29.98;26.02;;;3.40;99.90;;;;;;6181314;23;20799;-76
2023/01/23 12:38:25;;;;;;;32.42;26.25;;;3.40;99.90;;;;;;6179353;23;20375;-77
2023/01/23 12:41:06;;;;;;;31.70;26.83;;;3.40;99.90;;;;;;6180747;23;20395;-78
2023/01/23 12:43:57;;;;;;;31.48;26.40;;;3.40;99.90;;;;;;6180225;23;20351;-77
2023/01/23 12:46:26;;;;;;;30.75;26.70;;;3.40;99.90;;;;;;6182175;23;20348;-77
2023/01/23 12:48:59;;;;;;;32.00;27.08;;;3.50;99.90;;;;;;6178333;23;20478;-77
2023/01/23 12:51:39;;;;;;;29.90;25.90;;;3.40;99.90;;;;;;6181440;23;20367;-77
2023/01/23 12:54:15;;;;;;;32.42;26.85;;;3.40;99.90;;;;;;6179971;23;20342;-78
2023/01/23 12:56:43;;;;;;;31.75;26.70;;;3.30;99.90;;;;;;6182926;23;20340;-78
2023/01/23 12:59:48;;;;;;;29.40;25.23;;;3.30;99.90;;;;;;6182619;23;20732;-77
2023/01/23 13:02:28;;;;;;;30.25;26.80;;;3.40;99.90;;;;;;6164353;23;20368;-79
2023/01/23 13:05:03;;;;;;;32.00;26.65;;;3.50;99.90;;;;;;6178882;23;20351;-79
2023/01/23 13:07:48;;;;;;;35.08;27.40;;;3.40;99.90;;;;;;6177465;23;20344;-78
2023/01/23 13:13:17;;;;;;;30.83;27.10;;;3.30;99.90;;;;;;6180909;23;20354;-78
2023/01/23 13:15:59;;;;;;;33.63;27.63;;;3.10;99.90;;;;;;6181395;23;20365;-77
2023/01/23 13:18:28;;;;;;;32.13;26.75;;;3.20;99.90;;;;;;6180870;23;20343;-78
2023/01/23 13:23:44;;;;;;;31.20;27.00;;;3.30;99.90;;;;;;6180316;23;20446;-76
2023/01/23 13:26:21;;;;;;;31.77;26.88;;;3.30;99.90;;;;;;6179819;23;20343;-77
2023/01/23 13:28:56;;;;;;;29.35;25.85;;;3.30;99.90;;;;;;6180339;23;20347;-77
2023/01/23 13:31:45;;;;;;;28.43;25.37;;;3.30;99.90;;;;;;6181889;23;20419;-77
2023/01/23 13:34:16;;;;;;;30.23;24.87;;;3.30;99.90;;;;;;6181692;23;20394;-77
2023/01/23 13:36:53;;;;;;;29.57;24.80;;;3.30;99.90;;;;;;6178370;23;20359;-77
2023/01/23 13:40:22;;;;;;;;;;;;;;;;;;;;;
2023/01/23 13:51:10;;;;;;;26.80;22.85;;;3.30;99.90;;;;;;6116056;23;20405;-79
2023/01/23 13:56:40;;;;;;;26.17;22.50;;;3.20;99.90;;;;;;6051234;23;20358;-79
2023/01/23 13:59:44;;;;;;;27.90;23.00;;;3.10;99.90;;;;;;6157144;23;20368;-79
2023/01/23 14:05:39;;;;;;;24.67;20.83;;;3.10;99.90;;;;;;6180548;23;20375;-78
2023/01/23 14:08:50;;;;;;;24.73;21.17;;;3.20;99.90;;;;;;6181257;23;20426;-78
2023/01/23 14:11:18;;;;;;;26.75;21.38;;;3.10;99.90;;;;;;6069596;23;20347;-78
2023/01/23 14:16:47;;;;;;;26.83;22.57;;;3.00;99.90;;;;;;6145636;23;20761;-78
2023/01/23 14:19:31;;;;;;;25.80;22.10;;;3.00;99.90;;;;;;6180867;23;20399;-76
2023/01/23 14:22:04;;;;;;;25.65;22.10;;;3.10;99.90;;;;;;6154340;23;20351;-79
2023/01/23 14:24:47;;;;;;;27.42;22.33;;;3.10;99.90;;;;;;6182352;23;20367;-79
2023/01/23 14:27:27;;;;;;;26.42;21.33;;;3.20;99.90;;;;;;6178944;23;20668;-77
2023/01/23 14:30:01;;;;;;;25.17;21.25;;;3.30;99.90;;;;;;6179475;23;20340;-78
2023/01/23 14:32:33;;;;;;;23.88;20.90;;;3.20;99.90;;;;;;6179402;23;20732;-78
2023/01/23 14:35:00;;;;;;;25.20;21.55;;;3.10;99.90;;;;;;6180608;23;20780;-79
2023/01/23 14:37:28;;;;;;;23.42;20.92;;;3.20;99.90;;;;;;6178786;23;20367;-76
2023/01/23 14:39:56;;;;;;;25.00;21.03;;;3.20;99.90;;;;;;6180671;23;20422;-78